createdAt,value
2023-05-19T00:01:02.005Z,4.82
2023-05-19T00:05:05.449Z,4.78
2023-05-19T00:09:09.997Z,4.70
2023-05-19T00:13:13.215Z,4.97
2023-05-19T00:17:18.478Z,5.25
2023-05-19T00:21:22.404Z,5.10
2023-05-19T00:25:25.433Z,4.72
2023-05-19T00:29:28.577Z,5.20
2023-05-19T00:33:34.053Z,6.20
2023-05-19T00:37:37.053Z,5.78
2023-05-19T00:45:42.673Z,6.32
2023-05-19T00:53:52.419Z,5.45
2023-05-19T00:57:59.215Z,6.00
2023-05-19T01:02:03.131Z,5.53
2023-05-19T01:06:08.163Z,5.18
2023-05-19T01:10:13.565Z,4.80
2023-05-19T01:14:17.131Z,4.47
2023-05-19T01:18:30.764Z,4.07
2023-05-19T01:23:17.063Z,4.10
2023-05-19T01:31:44.705Z,3.90
2023-05-19T01:35:50.477Z,3.83
2023-05-19T01:39:55.868Z,3.88
2023-05-19T01:43:59.468Z,3.38
2023-05-19T01:48:08.429Z,4.30
2023-05-19T01:52:13.409Z,3.45
2023-05-19T02:00:31.768Z,4.25
2023-05-19T02:04:42.661Z,3.35
2023-05-19T02:08:55.873Z,3.30
2023-05-19T02:13:06.319Z,3.42
2023-05-19T02:17:12.683Z,2.95
2023-05-19T02:21:16.884Z,3.38
2023-05-19T02:25:19.970Z,3.08
2023-05-19T02:29:23.326Z,2.90
2023-05-19T02:37:32.819Z,2.83
2023-05-19T02:41:36.191Z,3.00
2023-05-19T02:45:39.202Z,2.75
2023-05-19T02:53:47.717Z,2.53
2023-05-19T02:57:50.787Z,2.90
2023-05-19T03:06:02.201Z,2.78
2023-05-19T03:10:08.718Z,2.92
2023-05-19T03:14:12.411Z,2.90
2023-05-19T03:18:16.850Z,3.03
2023-05-19T03:22:21.294Z,3.45
2023-05-19T03:26:26.408Z,3.38
2023-05-19T03:30:30.155Z,3.53
2023-05-19T03:34:34.118Z,3.13
2023-05-19T03:38:37.195Z,3.13
2023-05-19T03:42:42.200Z,3.13
2023-05-19T03:46:45.560Z,3.88
2023-05-19T03:50:48.796Z,3.13
2023-05-19T03:54:52.019Z,3.17
2023-05-19T03:58:56.819Z,3.60
2023-05-19T04:03:00.730Z,3.08
2023-05-19T04:07:04.081Z,3.50
2023-05-19T04:11:07.034Z,3.47
2023-05-19T04:19:15.988Z,4.00
2023-05-19T04:23:19.175Z,3.80
2023-05-19T04:27:22.516Z,4.55
2023-05-19T04:31:28.958Z,4.15
2023-05-19T04:35:34.016Z,4.88
2023-05-19T04:39:39.122Z,4.78
2023-05-19T04:43:44.896Z,4.93
2023-05-19T04:47:49.462Z,5.18
2023-05-19T04:51:55.546Z,5.25
2023-05-19T04:56:01.207Z,5.10
2023-05-19T05:00:08.365Z,4.72
2023-05-19T05:04:13.394Z,4.95
2023-05-19T05:08:22.136Z,5.60
2023-05-19T05:12:25.666Z,5.10
2023-05-19T05:16:29.146Z,5.30
2023-05-19T05:20:34.991Z,5.40
2023-05-19T05:24:38.606Z,5.95
2023-05-19T05:28:43.249Z,5.85
2023-05-19T05:32:46.432Z,5.38
2023-05-19T05:36:51.336Z,5.35
2023-05-19T05:40:54.838Z,5.82
2023-05-19T05:44:57.600Z,4.50
2023-05-19T05:49:01.193Z,5.72
2023-05-19T05:53:08.495Z,4.85
2023-05-19T05:57:12.479Z,4.35
2023-05-19T06:01:17.172Z,4.28
2023-05-19T06:05:20.502Z,4.20
2023-05-19T06:09:24.889Z,3.70
2023-05-19T06:13:27.784Z,3.95
2023-05-19T06:21:33.630Z,4.70
2023-05-19T06:25:38.275Z,3.58
2023-05-19T06:29:41.274Z,3.92
2023-05-19T06:33:44.267Z,3.83
2023-05-19T06:41:51.513Z,3.35
2023-05-19T06:45:54.510Z,6.05
2023-05-19T06:50:00.241Z,3.45
2023-05-19T06:54:03.170Z,3.83
2023-05-19T06:58:07.978Z,4.40
2023-05-19T07:02:10.950Z,4.28
2023-05-19T07:06:14.504Z,4.65
2023-05-19T07:10:17.535Z,4.45
2023-05-19T07:14:21.782Z,4.30
2023-05-19T07:18:24.834Z,4.07
2023-05-19T07:22:28.073Z,4.75
2023-05-19T07:26:31.700Z,4.70
2023-05-19T07:30:36.270Z,4.18
2023-05-19T07:34:39.537Z,4.75
2023-05-19T07:38:42.559Z,4.60
2023-05-19T07:42:46.076Z,4.40
2023-05-19T07:46:50.530Z,5.35
2023-05-19T07:50:54.757Z,5.13
2023-05-19T07:54:57.796Z,4.55
2023-05-19T07:59:00.805Z,4.78
2023-05-19T08:03:05.528Z,4.88
2023-05-19T08:07:08.760Z,4.53
2023-05-19T08:11:12.429Z,5.35
2023-05-19T08:15:16.754Z,5.63
2023-05-19T08:19:21.124Z,5.63
2023-05-19T08:23:24.139Z,4.78
2023-05-19T08:27:27.245Z,4.88
2023-05-19T08:31:30.722Z,5.13
2023-05-19T08:35:35.084Z,4.70
2023-05-19T08:39:37.724Z,4.50
2023-05-19T08:43:40.816Z,4.88
2023-05-19T08:47:47.266Z,4.78
2023-05-19T08:51:59.344Z,4.85
2023-05-19T08:56:10.309Z,4.72
2023-05-19T09:00:15.472Z,6.22
2023-05-19T09:04:18.741Z,5.85
2023-05-19T09:08:23.258Z,5.55
2023-05-19T09:12:26.218Z,4.97
2023-05-19T09:16:30.212Z,5.95
2023-05-19T09:20:33.669Z,5.38
2023-05-19T09:24:40.700Z,5.63
2023-05-19T09:28:43.659Z,5.85
2023-05-19T09:32:50.399Z,6.10
2023-05-19T09:36:53.674Z,6.72
2023-05-19T09:41:00.224Z,6.22
2023-05-19T09:45:03.647Z,5.18
2023-05-19T09:49:10.854Z,5.65
2023-05-19T09:53:15.686Z,5.22
2023-05-19T09:57:27.210Z,5.53
2023-05-19T10:01:31.711Z,5.72
2023-05-19T10:05:35.050Z,5.70
2023-05-19T10:09:41.028Z,6.25
2023-05-19T10:13:47.528Z,6.40
2023-05-19T10:17:52.163Z,5.50
2023-05-19T10:21:56.151Z,5.80
2023-05-19T10:26:04.398Z,6.10
2023-05-19T10:30:15.667Z,5.47
2023-05-19T10:34:44.638Z,5.90
2023-05-19T10:38:53.798Z,6.15
2023-05-19T10:43:15.301Z,6.05
2023-05-19T10:47:25.556Z,6.55
2023-05-19T10:51:33.048Z,6.40
2023-05-19T10:55:52.870Z,6.88
2023-05-19T10:59:57.248Z,7.28
2023-05-19T11:04:09.358Z,6.13
2023-05-19T11:08:13.958Z,6.95
2023-05-19T11:12:24.645Z,6.78
2023-05-19T11:16:30.185Z,6.43
2023-05-19T11:20:35.430Z,6.80
2023-05-19T11:24:40.321Z,7.18
2023-05-19T11:28:43.452Z,7.00
2023-05-19T11:32:49.403Z,6.18
2023-05-19T11:36:55.280Z,6.95
2023-05-19T11:40:58.860Z,7.07
2023-05-19T11:45:03.003Z,7.30
2023-05-19T11:49:06.920Z,8.25
2023-05-19T11:53:13.860Z,6.65
2023-05-19T11:57:17.263Z,7.78
2023-05-19T12:01:20.331Z,6.65
2023-05-19T12:05:24.946Z,6.10
2023-05-19T12:09:31.284Z,7.05
2023-05-19T12:13:34.960Z,6.32
2023-05-19T12:17:37.836Z,6.40
2023-05-19T12:25:45.381Z,8.82
2023-05-19T12:29:52.778Z,6.63
2023-05-19T12:33:57.649Z,6.72
2023-05-19T12:38:08.687Z,8.32
2023-05-19T12:42:13.842Z,7.32
2023-05-19T12:46:17.557Z,8.05
2023-05-19T12:50:20.613Z,8.38
2023-05-19T12:54:25.117Z,8.07
2023-05-19T12:58:29.583Z,8.75
2023-05-19T13:02:34.439Z,9.27
2023-05-19T13:06:37.581Z,8.23
2023-05-19T13:10:41.953Z,8.32
2023-05-19T13:14:46.745Z,8.73
2023-05-19T13:18:49.714Z,7.38
2023-05-19T13:22:53.618Z,7.80
2023-05-19T13:26:56.960Z,8.60
2023-05-19T13:31:01.666Z,8.43
2023-05-19T13:35:04.650Z,8.23
2023-05-19T13:39:07.537Z,8.20
2023-05-19T13:43:10.525Z,7.70
2023-05-19T13:47:15.062Z,7.45
2023-05-19T13:51:18.459Z,7.65
2023-05-19T13:55:21.853Z,8.30
2023-05-19T13:59:24.963Z,8.95
2023-05-19T14:03:30.026Z,7.70
2023-05-19T14:07:35.082Z,7.20
2023-05-19T14:11:38.495Z,7.45
2023-05-19T14:15:41.578Z,7.93
2023-05-19T14:19:45.960Z,7.45
2023-05-19T14:23:49.027Z,7.25
2023-05-19T14:27:53.771Z,8.55
2023-05-19T14:31:57.100Z,7.88
2023-05-19T14:36:01.486Z,7.07
2023-05-19T14:40:05.649Z,6.95
2023-05-19T14:44:08.530Z,6.80
2023-05-19T14:48:12.234Z,6.25
2023-05-19T14:52:20.442Z,7.43
2023-05-19T14:56:23.639Z,6.40
2023-05-19T15:00:27.268Z,6.15
2023-05-19T15:04:33.025Z,6.35
2023-05-19T15:08:37.930Z,7.03
2023-05-19T15:12:40.940Z,6.70
2023-05-19T15:16:43.886Z,7.75
2023-05-19T15:20:46.985Z,7.10
2023-05-19T15:24:52.013Z,6.35
2023-05-19T15:28:57.416Z,6.90
2023-05-19T15:33:00.596Z,6.40
2023-05-19T15:37:04.076Z,7.20
2023-05-19T15:41:13.781Z,7.22
2023-05-19T15:45:16.764Z,6.53
2023-05-19T15:49:19.593Z,6.30
2023-05-19T15:53:23.471Z,6.20
2023-05-19T15:57:28.371Z,7.03
2023-05-19T16:01:32.021Z,6.32
2023-05-19T16:05:37.526Z,7.55
2023-05-19T16:09:40.619Z,7.00
2023-05-19T16:13:44.937Z,6.40
2023-05-19T16:17:48.247Z,6.95
2023-05-19T16:21:50.996Z,7.10
2023-05-19T16:30:01.146Z,7.18
2023-05-19T16:34:04.258Z,5.68
2023-05-19T16:38:08.926Z,6.47
2023-05-19T16:42:11.906Z,7.70
2023-05-19T16:46:16.941Z,7.25
2023-05-19T16:50:20.540Z,7.50
2023-05-19T16:54:23.769Z,8.05
2023-05-19T16:58:28.023Z,7.57
2023-05-19T17:02:34.477Z,6.68
2023-05-19T17:06:38.070Z,6.38
2023-05-19T17:10:41.333Z,6.38
2023-05-19T17:14:44.729Z,6.68
2023-05-19T17:18:49.311Z,6.90
2023-05-19T17:22:52.888Z,7.07
2023-05-19T17:26:55.935Z,7.72
2023-05-19T17:30:58.973Z,8.13
2023-05-19T17:35:06.787Z,9.35
2023-05-19T17:39:09.701Z,9.30
2023-05-19T17:43:12.991Z,8.43
2023-05-19T17:47:15.840Z,9.93
2023-05-19T17:51:21.350Z,8.98
2023-05-19T17:55:30.093Z,8.05
2023-05-19T17:59:33.666Z,9.18
2023-05-19T18:03:37.434Z,9.32
2023-05-19T18:07:44.003Z,8.80
2023-05-19T18:11:47.321Z,9.75
2023-05-19T18:15:50.349Z,10.68
2023-05-19T18:19:54.764Z,11.32
2023-05-19T18:24:02.721Z,12.23
2023-05-19T18:28:06.846Z,10.93
2023-05-19T18:32:10.288Z,10.80
2023-05-19T18:36:13.765Z,10.73
2023-05-19T18:40:18.341Z,11.25
2023-05-19T18:44:21.897Z,13.32
2023-05-19T18:48:25.779Z,14.38
2023-05-19T18:52:29.355Z,11.75
2023-05-19T18:56:34.676Z,13.90
2023-05-19T19:00:37.936Z,14.18
2023-05-19T19:04:41.254Z,14.48
2023-05-19T19:08:44.321Z,15.68
2023-05-19T19:12:58.761Z,15.95
2023-05-19T19:17:01.950Z,19.52
2023-05-19T19:21:06.019Z,17.27
2023-05-19T19:25:10.420Z,17.23
2023-05-19T19:29:16.932Z,16.55
2023-05-19T19:33:20.104Z,16.50
2023-05-19T19:37:22.766Z,18.15
2023-05-19T19:41:26.738Z,16.05
2023-05-19T19:45:32.501Z,16.92
2023-05-19T19:49:35.674Z,17.50
2023-05-19T19:53:39.292Z,16.40
2023-05-19T19:57:47.279Z,17.35
2023-05-19T20:01:52.257Z,21.05
2023-05-19T20:05:57.039Z,19.25
2023-05-19T20:10:00.240Z,15.38
2023-05-19T20:14:03.052Z,18.98
2023-05-19T20:18:09.853Z,16.60
2023-05-19T20:22:12.788Z,16.90
2023-05-19T20:26:16.186Z,16.63
2023-05-19T20:30:20.432Z,18.40
2023-05-19T20:34:25.101Z,17.90
2023-05-19T20:38:28.429Z,19.88
2023-05-19T20:42:31.880Z,18.88
2023-05-19T20:46:35.123Z,17.33
2023-05-19T20:50:40.905Z,18.42
2023-05-19T20:54:44.058Z,20.20
2023-05-19T20:58:47.410Z,19.08
2023-05-19T21:02:53.259Z,18.33
2023-05-19T21:06:57.736Z,17.70
2023-05-19T21:11:03.301Z,17.77
2023-05-19T21:15:08.218Z,17.05
2023-05-19T21:19:11.214Z,18.15
2023-05-19T21:23:15.701Z,18.23
2023-05-19T21:27:18.955Z,16.83
2023-05-19T21:31:22.189Z,18.88
2023-05-19T21:35:27.002Z,17.33
2023-05-19T21:39:31.877Z,18.10
2023-05-19T21:43:35.294Z,16.30
2023-05-19T21:47:38.444Z,15.43
2023-05-19T21:51:41.613Z,16.27
2023-05-19T21:55:46.481Z,15.98
2023-05-19T21:59:49.619Z,16.40
2023-05-19T22:03:52.470Z,15.60
2023-05-19T22:11:59.992Z,16.55
2023-05-19T22:16:04.871Z,16.83
2023-05-19T22:20:09.149Z,15.75
2023-05-19T22:24:12.560Z,15.05
2023-05-19T22:28:17.266Z,15.88
2023-05-19T22:32:20.152Z,16.17
2023-05-19T22:36:23.196Z,15.55
2023-05-19T22:40:26.574Z,17.60
2023-05-19T22:44:31.206Z,14.13
2023-05-19T22:48:34.282Z,15.80
2023-05-19T22:52:37.975Z,15.52
2023-05-19T22:56:44.421Z,14.15
2023-05-19T23:00:50.012Z,15.00
2023-05-19T23:04:53.063Z,16.52
2023-05-19T23:09:03.481Z,14.65
2023-05-19T23:13:06.704Z,15.90
2023-05-19T23:21:14.162Z,15.07
2023-05-19T23:25:17.278Z,14.75
2023-05-19T23:29:20.195Z,14.05
2023-05-19T23:33:26.479Z,15.40
2023-05-19T23:37:29.500Z,14.82
2023-05-19T23:41:32.885Z,13.70
2023-05-19T23:45:36.053Z,16.25
2023-05-19T23:49:40.462Z,13.85
2023-05-19T23:53:43.773Z,15.68
2023-05-19T23:57:46.765Z,15.68
